createdAt,value
2023-03-29T00:00:41.139Z,101062.81
2023-03-29T00:03:11.966Z,101063.75
2023-03-29T00:05:42.940Z,101059.44
2023-03-29T00:08:19.461Z,101051.50
2023-03-29T00:10:52.851Z,101053.06
2023-03-29T00:13:25.156Z,101051.44
2023-03-29T00:15:56.154Z,101048.13
2023-03-29T00:18:26.848Z,101044.66
2023-03-29T00:21:01.876Z,101034.28
2023-03-29T00:23:32.669Z,101048.28
2023-03-29T00:26:04.692Z,101049.97
2023-03-29T00:28:38.235Z,101050.06
2023-03-29T00:31:10.921Z,101025.63
2023-03-29T00:33:42.207Z,101048.41
2023-03-29T00:36:14.045Z,101046.72
2023-03-29T00:38:44.720Z,101045.94
2023-03-29T00:41:15.415Z,101041.56
2023-03-29T00:43:59.235Z,101029.53
2023-03-29T00:46:30.909Z,101041.69
2023-03-29T00:49:05.611Z,101041.69
2023-03-29T00:51:39.859Z,101022.56
2023-03-29T00:54:16.936Z,101033.16
2023-03-29T00:56:50.786Z,101027.16
2023-03-29T00:59:27.337Z,101021.97
2023-03-29T01:02:02.924Z,101015.81
2023-03-29T01:04:39.200Z,100996.69
2023-03-29T01:07:14.809Z,101013.25
2023-03-29T01:09:50.381Z,101008.97
2023-03-29T01:12:27.035Z,101015.91
2023-03-29T01:15:05.280Z,101009.88
2023-03-29T01:17:35.852Z,101010.78
2023-03-29T01:20:15.147Z,100982.03
2023-03-29T01:23:01.519Z,100995.28
2023-03-29T01:25:39.701Z,101001.31
2023-03-29T01:28:14.368Z,100997.88
2023-03-29T01:30:51.283Z,100996.09
2023-03-29T01:33:25.492Z,101000.41
2023-03-29T01:36:05.555Z,100965.66
2023-03-29T01:38:43.685Z,100976.16
2023-03-29T01:41:15.024Z,100960.56
2023-03-29T01:43:50.252Z,100975.44
2023-03-29T01:46:28.606Z,100959.84
2023-03-29T01:49:02.958Z,100971.22
2023-03-29T01:51:38.936Z,100964.25
2023-03-29T01:54:14.310Z,100951.25
2023-03-29T01:56:47.855Z,100955.63
2023-03-29T01:59:24.704Z,100946.09
2023-03-29T02:01:59.568Z,100949.50
2023-03-29T02:04:35.438Z,100931.25
2023-03-29T02:07:08.128Z,100950.41
2023-03-29T02:09:40.573Z,100943.50
2023-03-29T02:12:12.821Z,100932.16
2023-03-29T02:14:45.130Z,100927.88
2023-03-29T02:17:26.022Z,100936.59
2023-03-29T02:20:01.643Z,100932.28
2023-03-29T02:22:39.172Z,100921.84
2023-03-29T02:25:12.425Z,100927.09
2023-03-29T02:27:43.172Z,100914.06
2023-03-29T02:30:18.808Z,100911.44
2023-03-29T02:32:54.981Z,100921.00
2023-03-29T02:35:35.311Z,100872.28
2023-03-29T02:38:09.725Z,100891.44
2023-03-29T02:40:42.865Z,100904.53
2023-03-29T02:43:16.259Z,100861.91
2023-03-29T02:45:50.070Z,100895.84
2023-03-29T02:48:23.915Z,100870.66
2023-03-29T02:50:57.094Z,100888.03
2023-03-29T02:53:32.920Z,100870.69
2023-03-29T02:56:04.606Z,100888.06
2023-03-29T02:58:35.220Z,100886.34
2023-03-29T03:01:08.915Z,100883.75
2023-03-29T03:03:39.675Z,100877.63
2023-03-29T03:06:10.587Z,100872.41
2023-03-29T03:08:41.198Z,100869.81
2023-03-29T03:11:11.685Z,100867.22
2023-03-29T03:13:42.140Z,100839.41
2023-03-29T03:16:14.517Z,100861.97
2023-03-29T03:18:46.711Z,100857.66
2023-03-29T03:21:17.851Z,100858.50
2023-03-29T03:23:48.406Z,100843.72
2023-03-29T03:26:19.808Z,100832.47
2023-03-29T03:28:50.639Z,100844.63
2023-03-29T03:31:22.705Z,100839.41
2023-03-29T03:33:53.765Z,100836.81
2023-03-29T03:36:30.026Z,100835.06
2023-03-29T03:39:00.597Z,100830.72
2023-03-29T03:41:31.076Z,100831.56
2023-03-29T03:44:01.614Z,100812.47
2023-03-29T03:46:36.770Z,100819.41
2023-03-29T03:49:07.506Z,100809.00
2023-03-29T03:51:38.241Z,100776.00
2023-03-29T03:54:08.996Z,100818.56
2023-03-29T03:56:39.619Z,100806.38
2023-03-29T03:59:10.255Z,100804.63
2023-03-29T04:01:44.374Z,100790.75
2023-03-29T04:04:15.458Z,100795.94
2023-03-29T04:06:46.749Z,100790.69
2023-03-29T04:09:17.421Z,100794.19
2023-03-29T04:11:48.025Z,100791.56
2023-03-29T04:14:18.723Z,100795.03
2023-03-29T04:16:50.901Z,100737.78
2023-03-29T04:19:21.842Z,100788.94
2023-03-29T04:21:54.471Z,100787.25
2023-03-29T04:24:26.786Z,100781.19
2023-03-29T04:26:57.270Z,100778.56
2023-03-29T04:29:28.058Z,100779.41
2023-03-29T04:32:00.114Z,100780.31
2023-03-29T04:34:30.684Z,100771.66
2023-03-29T04:37:01.326Z,100771.66
2023-03-29T04:39:35.161Z,100775.97
2023-03-29T04:42:05.989Z,100763.81
2023-03-29T04:44:36.637Z,100769.88
2023-03-29T04:47:08.853Z,100766.41
2023-03-29T04:49:39.386Z,100762.91
2023-03-29T04:52:10.106Z,100762.94
2023-03-29T04:54:40.840Z,100756.84
2023-03-29T04:57:11.892Z,100747.34
2023-03-29T04:59:42.659Z,100756.00
2023-03-29T05:02:14.958Z,100714.38
2023-03-29T05:04:45.716Z,100752.56
2023-03-29T05:07:16.475Z,100716.09
2023-03-29T05:09:47.308Z,100741.25
2023-03-29T05:12:26.984Z,100741.22
2023-03-29T05:15:05.722Z,100740.38
2023-03-29T05:17:43.972Z,100728.22
2023-03-29T05:20:16.135Z,100736.00
2023-03-29T05:22:48.395Z,100735.16
2023-03-29T05:25:20.770Z,100728.19
2023-03-29T05:27:52.404Z,100734.28
2023-03-29T05:30:24.129Z,100729.97
2023-03-29T05:32:57.471Z,100684.00
2023-03-29T05:35:30.262Z,100716.09
2023-03-29T05:38:02.079Z,100726.53
2023-03-29T05:40:33.954Z,100725.66
2023-03-29T05:43:06.810Z,100719.59
2023-03-29T05:45:38.182Z,100717.84
2023-03-29T05:48:11.302Z,100726.50
2023-03-29T05:50:44.379Z,100724.81
2023-03-29T05:53:18.535Z,100714.38
2023-03-29T05:55:49.587Z,100722.19
2023-03-29T05:58:21.703Z,100726.53
2023-03-29T06:00:53.358Z,100724.81
2023-03-29T06:03:28.719Z,100700.47
2023-03-29T06:06:01.710Z,100710.88
2023-03-29T06:08:35.116Z,100713.47
2023-03-29T06:11:09.963Z,100619.78
2023-03-29T06:13:43.337Z,100676.16
2023-03-29T06:16:15.400Z,100710.00
2023-03-29T06:18:49.039Z,100702.19
2023-03-29T06:21:25.946Z,100703.03
2023-03-29T06:23:57.636Z,100695.25
2023-03-29T06:26:29.812Z,100698.72
2023-03-29T06:29:01.471Z,100703.06
2023-03-29T06:31:33.011Z,100704.78
2023-03-29T06:34:07.279Z,100707.41
2023-03-29T06:36:38.986Z,100696.09
2023-03-29T06:39:11.019Z,100703.88
2023-03-29T06:41:43.393Z,100707.34
2023-03-29T06:44:15.137Z,100702.97
2023-03-29T06:46:46.518Z,100641.31
2023-03-29T06:49:19.728Z,100712.50
2023-03-29T06:51:51.638Z,100696.00
2023-03-29T06:54:23.415Z,100706.44
2023-03-29T06:56:54.922Z,100696.88
2023-03-29T06:59:26.870Z,100695.97
2023-03-29T07:02:00.235Z,100702.88
2023-03-29T07:04:33.525Z,100702.88
2023-03-29T07:07:04.335Z,100708.91
2023-03-29T07:09:36.765Z,100634.19
2023-03-29T07:12:07.571Z,100699.31
2023-03-29T07:14:38.136Z,100700.09
2023-03-29T07:17:08.712Z,100709.66
2023-03-29T07:19:41.122Z,100698.41
2023-03-29T07:22:11.796Z,100705.31
2023-03-29T07:24:42.295Z,100724.38
2023-03-29T07:27:13.872Z,100720.81
2023-03-29T07:29:44.594Z,100719.91
2023-03-29T07:32:15.181Z,100713.81
2023-03-29T07:34:48.871Z,100722.47
2023-03-29T07:37:19.506Z,100720.69
2023-03-29T07:39:50.885Z,100670.25
2023-03-29T07:42:22.029Z,100718.94
2023-03-29T07:44:52.632Z,100724.13
2023-03-29T07:47:23.246Z,100711.94
2023-03-29T07:49:55.418Z,100725.72
2023-03-29T07:52:26.074Z,100720.38
2023-03-29T07:54:58.277Z,100731.59
2023-03-29T07:57:29.661Z,100725.38
2023-03-29T08:00:00.237Z,100736.53
2023-03-29T08:02:30.893Z,100726.91
2023-03-29T08:05:03.041Z,100731.16
2023-03-29T08:07:36.564Z,100726.81
2023-03-29T08:10:10.336Z,100734.56
2023-03-29T08:12:41.286Z,100704.75
2023-03-29T08:15:15.852Z,100729.13
2023-03-29T08:17:46.554Z,100740.47
2023-03-29T08:20:19.307Z,100701.22
2023-03-29T08:22:49.764Z,100736.88
2023-03-29T08:25:20.336Z,100743.72
2023-03-29T08:27:50.798Z,100735.03
2023-03-29T08:30:21.652Z,100735.00
2023-03-29T08:32:55.302Z,100741.06
2023-03-29T08:35:28.255Z,100621.88
2023-03-29T08:37:58.683Z,100736.53
2023-03-29T08:40:32.982Z,100717.28
2023-03-29T08:43:22.920Z,100739.84
2023-03-29T08:46:06.622Z,100734.53
2023-03-29T08:48:42.916Z,100738.75
2023-03-29T08:51:22.742Z,100736.13
2023-03-29T08:53:55.230Z,100742.06
2023-03-29T08:56:30.754Z,100688.81
2023-03-29T08:59:06.093Z,100749.69
2023-03-29T09:01:41.341Z,100750.59
2023-03-29T09:04:16.569Z,100753.09
2023-03-29T09:09:55.735Z,100758.09
2023-03-29T09:12:36.608Z,100754.56
2023-03-29T09:15:20.488Z,100761.50
2023-03-29T09:17:59.230Z,100738.84
2023-03-29T09:20:41.732Z,100753.47
2023-03-29T09:23:49.319Z,100755.16
2023-03-29T09:26:26.764Z,100756.00
2023-03-29T09:29:11.803Z,100749.94
2023-03-29T09:31:46.056Z,100755.88
2023-03-29T09:34:21.634Z,100729.44
2023-03-29T09:36:57.723Z,100769.41
2023-03-29T09:39:31.988Z,100769.38
2023-03-29T09:42:08.807Z,100740.50
2023-03-29T09:44:46.385Z,100769.19
2023-03-29T09:47:29.292Z,100738.47
2023-03-29T09:50:16.854Z,100764.59
2023-03-29T09:52:58.582Z,100784.56
2023-03-29T09:55:34.723Z,100768.97
2023-03-29T09:58:17.203Z,100699.13
2023-03-29T10:00:48.077Z,100738.25
2023-03-29T10:03:23.136Z,100780.88
2023-03-29T10:05:56.540Z,100754.53
2023-03-29T10:08:30.518Z,100775.41
2023-03-29T10:11:06.049Z,100781.59
2023-03-29T10:13:38.710Z,100789.44
2023-03-29T10:16:11.178Z,100788.59
2023-03-29T10:18:44.398Z,100780.69
2023-03-29T10:21:17.583Z,100794.47
2023-03-29T10:23:48.081Z,100796.97
2023-03-29T10:26:28.834Z,100796.09
2023-03-29T10:29:02.413Z,100779.53
2023-03-29T10:31:35.124Z,100769.66
2023-03-29T10:34:11.327Z,100762.63
2023-03-29T10:37:00.150Z,100797.50
2023-03-29T10:39:35.356Z,100801.00
2023-03-29T10:42:11.028Z,100797.50
2023-03-29T10:44:44.339Z,100802.63
2023-03-29T10:47:20.456Z,100785.28
2023-03-29T10:50:01.610Z,100775.63
2023-03-29T10:52:36.141Z,100806.06
2023-03-29T10:55:16.721Z,100809.47
2023-03-29T10:57:58.636Z,100797.31
2023-03-29T11:00:38.571Z,100796.38
2023-03-29T11:03:21.736Z,100800.75
2023-03-29T11:06:17.360Z,100795.56
2023-03-29T11:12:32.854Z,100806.59
2023-03-29T11:15:41.385Z,100814.31
2023-03-29T11:19:01.668Z,100802.94
2023-03-29T11:21:44.671Z,100772.16
2023-03-29T11:24:56.267Z,100817.44
2023-03-29T11:27:40.992Z,100814.03
2023-03-29T11:30:23.313Z,100788.63
2023-03-29T11:33:06.870Z,100792.94
2023-03-29T11:35:54.407Z,100806.91
2023-03-29T11:38:44.707Z,100808.59
2023-03-29T11:41:21.068Z,100777.44
2023-03-29T11:43:57.117Z,100712.81
2023-03-29T11:46:38.814Z,100793.91
2023-03-29T11:49:17.746Z,100798.19
2023-03-29T11:51:51.874Z,100803.06
2023-03-29T11:54:28.276Z,100794.47
2023-03-29T11:57:08.789Z,100802.91
2023-03-29T11:59:43.575Z,100804.50
2023-03-29T12:02:25.411Z,100804.41
2023-03-29T12:05:08.350Z,100803.59
2023-03-29T12:07:42.640Z,100808.69
2023-03-29T12:10:22.826Z,100799.13
2023-03-29T12:13:28.380Z,100802.69
2023-03-29T12:16:05.395Z,100790.34
2023-03-29T12:18:42.812Z,100809.44
2023-03-29T12:21:17.031Z,100764.03
2023-03-29T12:24:24.293Z,100805.00
2023-03-29T12:27:35.149Z,100802.41
2023-03-29T12:30:31.164Z,100769.09
2023-03-29T12:33:20.901Z,100803.16
2023-03-29T12:36:08.292Z,100798.75
2023-03-29T12:38:40.161Z,100810.72
2023-03-29T12:41:19.824Z,100807.28
2023-03-29T12:43:53.699Z,100793.59
2023-03-29T12:46:37.441Z,100796.16
2023-03-29T12:49:40.770Z,100792.59
2023-03-29T12:52:31.197Z,100755.00
2023-03-29T12:55:07.066Z,100791.75
2023-03-29T12:57:45.224Z,100790.72
2023-03-29T13:00:33.326Z,100787.31
2023-03-29T13:03:07.778Z,100791.78
2023-03-29T13:05:39.347Z,100798.75
2023-03-29T13:08:31.898Z,100803.03
2023-03-29T13:11:02.660Z,100793.47
2023-03-29T13:13:37.560Z,100790.09
2023-03-29T13:16:19.831Z,100788.13
2023-03-29T13:19:22.560Z,100800.59
2023-03-29T13:22:07.139Z,100802.47
2023-03-29T13:25:05.366Z,100797.31
2023-03-29T13:27:45.482Z,100792.09
2023-03-29T13:30:29.217Z,100793.81
2023-03-29T13:33:14.547Z,100786.94
2023-03-29T13:35:58.164Z,100789.53
2023-03-29T13:38:33.060Z,100715.47
2023-03-29T13:41:08.165Z,100766.28
2023-03-29T13:43:52.173Z,100757.69
2023-03-29T13:46:27.085Z,100773.41
2023-03-29T13:49:15.584Z,100763.09
2023-03-29T13:52:06.829Z,100776.81
2023-03-29T13:54:42.592Z,100761.38
2023-03-29T13:57:20.014Z,100768.25
2023-03-29T13:59:58.406Z,100767.22
2023-03-29T14:02:48.797Z,100763.00
2023-03-29T14:05:25.865Z,100776.06
2023-03-29T14:08:06.639Z,100701.97
2023-03-29T14:10:44.220Z,100770.03
2023-03-29T14:13:25.132Z,100768.38
2023-03-29T14:16:01.138Z,100773.53
2023-03-29T14:18:42.984Z,100780.41
2023-03-29T14:21:18.227Z,100733.44
2023-03-29T14:24:00.569Z,100771.06
2023-03-29T14:26:36.887Z,100768.44
2023-03-29T14:29:14.690Z,100772.09
2023-03-29T14:31:48.590Z,100780.66
2023-03-29T14:34:23.773Z,100765.09
2023-03-29T14:36:59.702Z,100773.72
2023-03-29T14:39:38.171Z,100772.09
2023-03-29T14:42:24.136Z,100781.69
2023-03-29T14:45:30.407Z,100787.66
2023-03-29T14:48:03.798Z,100787.72
2023-03-29T14:50:37.506Z,100784.31
2023-03-29T14:53:29.055Z,100773.09
2023-03-29T14:56:34.186Z,100774.75
2023-03-29T14:59:23.535Z,100693.84
2023-03-29T15:02:32.432Z,100756.59
2023-03-29T15:05:36.509Z,100749.69
2023-03-29T15:08:33.609Z,100752.41
2023-03-29T15:12:01.609Z,100750.66
2023-03-29T15:14:42.816Z,100749.75
2023-03-29T15:17:57.372Z,100742.78
2023-03-29T15:20:46.563Z,100720.19
2023-03-29T15:27:00.313Z,100738.31
2023-03-29T15:29:47.207Z,100746.97
2023-03-29T15:32:26.051Z,100733.84
2023-03-29T15:35:19.835Z,100679.25
2023-03-29T15:38:08.297Z,100736.72
2023-03-29T15:40:43.409Z,100738.66
2023-03-29T15:43:17.413Z,100742.34
2023-03-29T15:45:58.173Z,100730.44
2023-03-29T15:48:37.134Z,100665.63
2023-03-29T15:51:22.132Z,100737.56
2023-03-29T15:54:00.137Z,100739.22
2023-03-29T15:56:42.559Z,100743.53
2023-03-29T15:59:22.520Z,100723.47
2023-03-29T16:02:00.922Z,100739.69
2023-03-29T16:04:33.660Z,100732.53
2023-03-29T16:07:08.100Z,100735.09
2023-03-29T16:09:43.318Z,100734.94
2023-03-29T16:12:18.490Z,100734.44
2023-03-29T16:14:52.368Z,100733.47
2023-03-29T16:17:41.143Z,100727.31
2023-03-29T16:20:26.292Z,100621.06
2023-03-29T16:23:00.721Z,100722.22
2023-03-29T16:25:38.224Z,100727.44
2023-03-29T16:28:12.550Z,100703.44
2023-03-29T16:30:52.968Z,100696.97
2023-03-29T16:33:24.577Z,100712.72
2023-03-29T16:35:59.336Z,100627.63
2023-03-29T16:38:32.871Z,100696.69
2023-03-29T16:41:24.643Z,100688.22
2023-03-29T16:44:01.789Z,100635.13
2023-03-29T16:46:41.962Z,100678.00
2023-03-29T16:49:19.250Z,100684.13
2023-03-29T16:51:58.648Z,100667.69
2023-03-29T16:54:34.564Z,100668.63
2023-03-29T16:57:12.836Z,100613.06
2023-03-29T17:00:10.492Z,100633.91
2023-03-29T17:02:43.079Z,100659.28
2023-03-29T17:05:15.233Z,100653.16
2023-03-29T17:08:26.934Z,100627.09
2023-03-29T17:11:10.922Z,100646.44
2023-03-29T17:13:46.170Z,100648.97
2023-03-29T17:16:25.730Z,100643.84
2023-03-29T17:19:00.735Z,100629.00
2023-03-29T17:21:41.228Z,100591.72
2023-03-29T17:24:16.011Z,100632.63
2023-03-29T17:26:51.725Z,100580.44
2023-03-29T17:29:31.993Z,100635.19
2023-03-29T17:32:03.915Z,100631.69
2023-03-29T17:34:37.882Z,100635.91
2023-03-29T17:37:27.120Z,100631.56
2023-03-29T17:39:57.601Z,100611.34
2023-03-29T17:42:29.522Z,100631.91
2023-03-29T17:45:09.068Z,100625.53
2023-03-29T17:47:43.284Z,100606.91
2023-03-29T17:50:18.051Z,100622.28
2023-03-29T17:53:06.686Z,100623.91
2023-03-29T17:55:59.060Z,100623.66
2023-03-29T18:03:05.891Z,100540.50
2023-03-29T18:09:33.158Z,100615.84
2023-03-29T18:12:05.471Z,100620.16
2023-03-29T18:14:38.793Z,100546.97
2023-03-29T18:17:18.767Z,100623.53
2023-03-29T18:20:21.777Z,100620.94
2023-03-29T18:22:54.240Z,100616.66
2023-03-29T18:25:31.400Z,100617.69
2023-03-29T18:28:16.483Z,100617.03
2023-03-29T18:30:59.779Z,100619.56
2023-03-29T18:33:50.462Z,100613.47
2023-03-29T18:36:22.502Z,100616.91
2023-03-29T18:39:13.842Z,100621.47
2023-03-29T18:41:54.894Z,100617.28
2023-03-29T18:44:41.472Z,100620.66
2023-03-29T18:47:17.986Z,100618.06
2023-03-29T18:49:52.747Z,100610.94
2023-03-29T18:52:36.170Z,100619.50
2023-03-29T18:55:09.283Z,100627.03
2023-03-29T18:57:45.575Z,100622.59
2023-03-29T19:00:24.453Z,100629.41
2023-03-29T19:02:54.973Z,100620.75
2023-03-29T19:05:27.086Z,100634.41
2023-03-29T19:08:00.585Z,100623.19
2023-03-29T19:10:31.228Z,100615.34
2023-03-29T19:13:06.883Z,100623.00
2023-03-29T19:15:37.320Z,100614.47
2023-03-29T19:18:08.615Z,100617.13
2023-03-29T19:20:42.439Z,100596.19
2023-03-29T19:23:24.152Z,100615.28
2023-03-29T19:25:55.781Z,100615.28
2023-03-29T19:28:26.856Z,100503.06
2023-03-29T19:31:02.838Z,100607.63
2023-03-29T19:33:33.793Z,100582.69
2023-03-29T19:36:06.107Z,100598.44
2023-03-29T19:38:39.821Z,100595.00
2023-03-29T19:41:10.652Z,100552.38
2023-03-29T19:43:41.451Z,100576.31
2023-03-29T19:46:13.528Z,100576.53
2023-03-29T19:48:44.135Z,100576.69
2023-03-29T19:51:16.312Z,100582.00
2023-03-29T19:53:50.533Z,100581.09
2023-03-29T19:56:21.026Z,100578.44
2023-03-29T19:58:51.910Z,100586.31
2023-03-29T20:01:23.034Z,100582.06
2023-03-29T20:03:53.844Z,100586.16
2023-03-29T20:06:29.586Z,100594.03
2023-03-29T20:08:59.999Z,100590.53
2023-03-29T20:11:32.109Z,100582.88
2023-03-29T20:14:05.922Z,100585.47
2023-03-29T20:16:37.318Z,100582.88
2023-03-29T20:19:08.506Z,100590.84
2023-03-29T20:21:41.553Z,100578.81
2023-03-29T20:24:12.772Z,100575.53
2023-03-29T20:26:43.401Z,100572.19
2023-03-29T20:29:16.249Z,100577.50
2023-03-29T20:31:47.253Z,100572.41
2023-03-29T20:34:21.234Z,100570.75
2023-03-29T20:37:01.552Z,100575.91
2023-03-29T20:39:32.748Z,100565.66
2023-03-29T20:42:03.861Z,100560.50
2023-03-29T20:44:39.955Z,100570.94
2023-03-29T20:47:14.929Z,100571.19
2023-03-29T20:49:50.252Z,100564.59
2023-03-29T20:52:23.190Z,100554.47
2023-03-29T20:54:53.797Z,100557.16
2023-03-29T20:57:24.393Z,100554.78
2023-03-29T20:59:54.882Z,100556.66
2023-03-29T21:02:45.312Z,100559.34
2023-03-29T21:05:37.017Z,100551.72
2023-03-29T21:08:33.238Z,100537.97
2023-03-29T21:11:21.350Z,100553.81
2023-03-29T21:14:08.462Z,100562.59
2023-03-29T21:16:51.480Z,100550.66
2023-03-29T21:19:26.567Z,100558.59
2023-03-29T21:22:24.470Z,100559.53
2023-03-29T21:25:17.653Z,100514.50
2023-03-29T21:28:24.173Z,100535.59
2023-03-29T21:31:09.713Z,100544.31
2023-03-29T21:34:07.363Z,100542.66
2023-03-29T21:37:01.220Z,100548.81
2023-03-29T21:40:17.372Z,100542.88
2023-03-29T21:43:48.726Z,100537.78
2023-03-29T21:47:17.061Z,100544.75
2023-03-29T21:50:36.608Z,100532.66
2023-03-29T21:53:58.980Z,100548.97
2023-03-29T21:57:12.024Z,100488.31
2023-03-29T22:00:13.118Z,100538.75
2023-03-29T22:03:25.257Z,100541.53
2023-03-29T22:06:39.716Z,100528.78
2023-03-29T22:13:14.386Z,100493.56
2023-03-29T22:16:27.511Z,100517.94
2023-03-29T22:19:17.605Z,100502.47
2023-03-29T22:22:07.016Z,100504.28
2023-03-29T22:24:49.697Z,100492.25
2023-03-29T22:27:46.593Z,100495.91
2023-03-29T22:30:52.049Z,100502.91
2023-03-29T22:33:35.412Z,100497.84
2023-03-29T22:36:38.231Z,100506.56
2023-03-29T22:39:26.937Z,100497.91
2023-03-29T22:49:11.283Z,100504.94
2023-03-29T22:52:33.578Z,100500.66
2023-03-29T23:02:19.334Z,100503.75
2023-03-29T23:05:07.961Z,100507.38
2023-03-29T23:07:41.325Z,100504.09
2023-03-29T23:10:14.037Z,100489.41
2023-03-29T23:12:45.781Z,100501.50
2023-03-29T23:15:18.360Z,100501.44
2023-03-29T23:17:50.198Z,100498.72
2023-03-29T23:20:22.176Z,100498.66
2023-03-29T23:22:59.118Z,100490.00
2023-03-29T23:25:31.125Z,100488.34
2023-03-29T23:28:02.880Z,100490.22
2023-03-29T23:30:34.439Z,100479.00
2023-03-29T23:33:06.089Z,100498.09
2023-03-29T23:35:38.112Z,100477.38
2023-03-29T23:38:11.216Z,100467.91
2023-03-29T23:40:42.704Z,100455.78
2023-03-29T23:46:11.661Z,100475.72
2023-03-29T23:48:43.438Z,100474.00
2023-03-29T23:51:14.751Z,100481.78
2023-03-29T23:53:47.898Z,100478.34
2023-03-29T23:56:22.588Z,100469.69
2023-03-29T23:58:54.109Z,100478.38
